TimeEST,TemperatureF,Dew PointF,Humidity,Sea Level PressureIn,VisibilityMPH,Wind Direction,Wind SpeedMPH,Gust SpeedMPH,PrecipitationIn,Events,Conditions,WindDirDegrees,DateUTC
12:54 AM,21.0,14.0,74,30.44,10.0,ESE,5.8,-,N/A,,Mostly Cloudy,120,2013-01-28 05:54:00
1:54 AM,21.0,15.1,78,30.42,10.0,Calm,Calm,-,N/A,,Scattered Clouds,0,2013-01-28 06:54:00
2:54 AM,23.0,15.1,72,30.40,10.0,Calm,Calm,-,N/A,,Overcast,0,2013-01-28 07:54:00
3:54 AM,23.0,15.1,72,30.37,9.0,SE,3.5,-,N/A,,Overcast,140,2013-01-28 08:54:00
4:54 AM,25.0,18.0,75,30.37,3.0,Calm,Calm,-,0.01,Snow,Light Snow,0,2013-01-28 09:54:00
5:01 AM,24.8,17.6,74,30.34,2.0,Calm,Calm,-,0.00,Snow,Light Snow,0,2013-01-28 10:01:00
5:20 AM,24.8,19.4,80,30.34,1.5,Calm,Calm,-,0.00,Snow,Light Snow,0,2013-01-28 10:20:00
5:28 AM,24.8,21.2,86,30.34,1.0,Calm,Calm,-,0.01,Snow,Light Snow,0,2013-01-28 10:28:00
5:36 AM,24.8,21.2,86,30.34,0.8,Calm,Calm,-,0.01,Snow,Light Snow,0,2013-01-28 10:36:00
5:43 AM,24.8,21.2,86,30.33,1.0,Calm,Calm,-,0.02,Snow,Light Snow,0,2013-01-28 10:43:00
5:54 AM,24.1,21.9,91,30.35,1.0,Calm,Calm,-,0.03,Snow,Light Snow,0,2013-01-28 10:54:00
6:45 AM,24.8,23.0,93,30.31,0.8,East,5.8,-,N/A,Snow,Light Snow,80,2013-01-28 11:45:00
6:54 AM,25.0,23.0,92,30.34,0.8,East,5.8,-,0.03,Snow,Light Snow,100,2013-01-28 11:54:00
7:29 AM,24.8,24.8,100,30.30,1.0,ENE,5.8,-,0.04,Snow,Light Snow,70,2013-01-28 12:29:00
7:47 AM,26.6,23.0,86,30.28,0.8,ENE,10.4,-,0.06,Snow,Light Snow,60,2013-01-28 12:47:00
7:54 AM,26.1,23.0,88,30.30,1.0,ENE,10.4,-,0.06,Snow,Light Snow,70,2013-01-28 12:54:00
8:11 AM,26.6,23.0,86,30.27,2.0,East,9.2,-,0.01,Rain,Light Freezing Rain,80,2013-01-28 13:11:00
8:23 AM,26.6,23.0,86,30.27,3.0,NE,5.8,-,0.01,Rain,Light Freezing Rain,50,2013-01-28 13:23:00
8:46 AM,28.4,24.8,86,30.26,2.0,Calm,Calm,-,0.02,Rain,Light Freezing Rain,0,2013-01-28 13:46:00
8:54 AM,28.0,24.1,85,30.27,3.0,ENE,8.1,-,0.03,Rain,Light Freezing Rain,60,2013-01-28 13:54:00
9:12 AM,28.4,24.8,86,30.24,2.5,East,8.1,-,0.01,Rain,Light Freezing Rain,100,2013-01-28 14:12:00
9:24 AM,28.4,24.8,86,30.24,3.0,Variable,5.8,16.1,0.01,Rain,Light Freezing Rain,0,2013-01-28 14:24:00
9:54 AM,28.0,24.1,85,30.25,4.0,ENE,6.9,-,0.01,,Overcast,60,2013-01-28 14:54:00
10:07 AM,28.4,24.8,86,30.21,2.5,ENE,12.7,23.0,0.01,Rain,Light Freezing Rain,70,2013-01-28 15:07:00
10:20 AM,28.4,26.6,93,30.21,2.0,East,10.4,19.6,0.02,Rain,Light Freezing Rain,80,2013-01-28 15:20:00
10:33 AM,28.4,26.6,93,30.22,3.0,Calm,Calm,-,0.03,Rain,Light Freezing Rain,0,2013-01-28 15:33:00
10:54 AM,30.0,26.1,85,30.22,3.0,East,9.2,-,0.04,Rain,Light Freezing Rain,80,2013-01-28 15:54:00
11:40 AM,30.2,26.6,86,30.17,2.0,East,8.1,-,0.00,Rain,Light Freezing Rain,100,2013-01-28 16:40:00
11:54 AM,30.0,27.0,88,30.17,3.0,East,9.2,19.6,0.01,Rain,Light Freezing Rain,90,2013-01-28 16:54:00
12:54 PM,30.2,26.6,86,30.11,3.0,Variable,5.8,-,N/A,Rain,Light Freezing Rain,0,2013-01-28 17:54:00
1:17 PM,30.2,28.4,93,30.10,1.8,NE,6.9,-,0.02,Rain,Light Freezing Rain,50,2013-01-28 18:17:00
1:27 PM,30.2,28.4,93,30.09,2.5,East,5.8,-,0.02,Rain,Light Freezing Rain,80,2013-01-28 18:27:00
1:35 PM,30.2,28.4,93,30.09,4.0,East,5.8,-,0.02,Rain,Light Freezing Rain,90,2013-01-28 18:35:00
1:54 PM,30.9,28.0,89,30.10,2.0,East,6.9,-,0.03,Rain,Light Freezing Rain,90,2013-01-28 18:54:00
2:06 PM,30.2,28.4,93,30.07,1.8,ENE,5.8,-,0.03,Rain,Light Freezing Rain,70,2013-01-28 19:06:00
2:12 PM,30.2,28.4,93,30.07,3.0,East,5.8,-,0.04,Rain,Light Freezing Rain,80,2013-01-28 19:12:00
2:25 PM,32.0,28.4,87,30.06,3.0,East,5.8,-,0.04,,Overcast,90,2013-01-28 19:25:00
2:54 PM,32.0,28.9,88,30.08,3.0,East,5.8,-,0.04,,Overcast,80,2013-01-28 19:54:00
3:01 PM,32.0,28.4,87,30.05,2.5,East,4.6,-,N/A,,Overcast,80,2013-01-28 20:01:00
3:24 PM,32.0,28.4,87,30.05,1.8,East,6.9,-,0.00,Rain,Light Freezing Rain,100,2013-01-28 20:24:00
3:35 PM,32.0,28.4,87,30.04,2.5,East,4.6,-,0.00,Rain,Light Freezing Rain,90,2013-01-28 20:35:00
3:47 PM,32.0,28.4,87,30.03,4.0,ESE,9.2,-,0.00,Rain,Light Freezing Rain,120,2013-01-28 20:47:00
3:54 PM,32.0,30.0,92,30.06,3.0,East,8.1,-,0.00,,Overcast,100,2013-01-28 20:54:00
4:38 PM,32.0,30.2,93,30.03,2.0,East,4.6,-,0.00,Rain,Light Rain,100,2013-01-28 21:38:00
4:54 PM,33.1,30.0,89,30.05,4.0,Calm,Calm,-,0.01,Rain,Light Rain,0,2013-01-28 21:54:00
5:54 PM,33.1,30.9,92,30.04,7.0,ENE,4.6,-,0.00,,Overcast,70,2013-01-28 22:54:00
6:14 PM,32.0,30.2,93,30.02,4.0,ESE,4.6,-,0.00,Rain,Light Rain,110,2013-01-28 23:14:00
6:54 PM,32.0,32.0,100,30.05,4.0,Calm,Calm,-,0.00,,Light Drizzle,0,2013-01-28 23:54:00
7:16 PM,32.0,32.0,100,30.02,2.5,East,4.6,-,0.00,,Light Drizzle,80,2013-01-29 00:16:00
7:23 PM,33.8,32.0,93,30.02,2.0,East,4.6,-,0.00,,Light Drizzle,80,2013-01-29 00:23:00
7:34 PM,32.0,32.0,100,30.02,1.8,East,3.5,-,0.00,,Light Drizzle,90,2013-01-29 00:34:00
7:54 PM,32.0,32.0,100,30.04,1.0,ESE,3.5,-,0.00,,Light Drizzle,110,2013-01-29 00:54:00
8:54 PM,32.0,32.0,100,30.03,1.2,Calm,Calm,-,0.01,,Light Drizzle,0,2013-01-29 01:54:00
9:54 PM,33.1,32.0,96,30.03,1.2,Calm,Calm,-,0.00,,Light Drizzle,0,2013-01-29 02:54:00
10:54 PM,33.1,32.0,96,30.04,1.5,Calm,Calm,-,0.00,,Overcast,0,2013-01-29 03:54:00
11:54 PM,33.1,32.0,96,30.04,1.0,Calm,Calm,-,N/A,,Overcast,0,2013-01-29 04:54:00